LFKC 210400Z AUTO 21005KT 9999 BKN029 OVC035 08/03 Q1018 NOSIG

ElémentsDécodage
LFKC Station météo située sur l'aérodrome de CALVI Sainte-Catherine
210400Z émis le 21 du mois à 04h00 UTC
AUTO Bulletin édité par un automate
21005KT vent du 210°, 05 noeuds
9999 visibilité horizontale supérieure à 10 Km
BKN029 nuages morcelés (5/8 à 7/8) à 2900 pieds
OVC035 couverture nuageuse totale (8/8) à 3500 pieds
08/03 température 08°C, point de rosée 03°C
 soit une humidité relative de 71%
Q1018 la pression au niveau de la mer (QNH) est de 1018 hPa
NOSIG Pas de changement significatif prévu au cours des deux heures suivant l'heure de l'observation